createdAt,value
2023-04-21T00:00:46.953Z,99654.75
2023-04-21T00:03:47.981Z,99648.60
2023-04-21T00:06:47.888Z,99649.24
2023-04-21T00:09:40.875Z,99650.71
2023-04-21T00:12:20.111Z,99645.41
2023-04-21T00:15:05.904Z,99647.98
2023-04-21T00:17:52.995Z,99642.19
2023-04-21T00:20:52.887Z,99643.46
2023-04-21T00:23:52.897Z,99641.25
2023-04-21T00:26:52.892Z,99639.23
2023-04-21T00:29:52.939Z,99636.50
2023-04-21T00:32:53.933Z,99637.42
2023-04-21T00:35:56.954Z,99632.83
2023-04-21T00:38:56.951Z,99633.11
2023-04-21T00:45:05.056Z,99635.58
2023-04-21T00:47:51.028Z,99634.98
2023-04-21T00:50:51.946Z,99631.66
2023-04-21T00:53:45.976Z,99635.23
2023-04-21T00:56:46.952Z,99633.53
2023-04-21T00:59:46.950Z,99631.02
2023-04-21T01:02:48.105Z,99631.56
2023-04-21T01:05:48.999Z,99632.25
2023-04-21T01:08:49.942Z,99629.38
2023-04-21T01:11:51.020Z,99632.66
2023-04-21T01:14:51.987Z,99633.54
2023-04-21T01:17:52.008Z,99629.59
2023-04-21T01:20:56.070Z,99628.42
2023-04-21T01:23:55.996Z,99624.34
2023-04-21T01:26:56.062Z,99624.51
2023-04-21T01:29:57.017Z,99622.44
2023-04-21T01:32:51.213Z,99619.30
2023-04-21T01:35:53.040Z,99618.73
2023-04-21T01:38:53.023Z,99615.61
2023-04-21T01:41:54.027Z,99614.72
2023-04-21T01:44:55.057Z,99610.88
2023-04-21T01:47:56.184Z,99614.43
2023-04-21T01:50:57.064Z,99615.28
2023-04-21T01:53:57.075Z,99611.91
2023-04-21T01:56:58.289Z,99606.81
2023-04-21T01:59:58.082Z,99605.66
2023-04-21T02:03:08.284Z,99603.33
2023-04-21T02:06:08.132Z,99603.29
2023-04-21T02:09:08.118Z,99598.21
2023-04-21T02:12:11.120Z,99593.50
2023-04-21T02:15:11.078Z,99587.28
2023-04-21T02:18:12.171Z,99581.20
2023-04-21T02:21:12.290Z,99579.58
2023-04-21T02:24:12.154Z,99578.06
2023-04-21T02:27:13.143Z,99574.86
2023-04-21T02:30:13.085Z,99575.77
2023-04-21T02:33:13.161Z,99575.02
2023-04-21T02:36:15.198Z,99569.92
2023-04-21T02:39:15.120Z,99570.10
2023-04-21T02:42:15.125Z,99573.35
2023-04-21T02:45:16.239Z,99569.17
2023-04-21T02:48:17.141Z,99567.74
2023-04-21T02:51:17.157Z,99569.71
2023-04-21T02:54:17.173Z,99566.76
2023-04-21T02:57:17.147Z,99568.70
2023-04-21T03:00:18.196Z,99569.65
2023-04-21T03:03:18.374Z,99568.23
2023-04-21T03:06:18.449Z,99566.88
2023-04-21T03:09:18.441Z,99568.48
2023-04-21T03:12:19.200Z,99565.45
2023-04-21T03:15:20.259Z,99570.40
2023-04-21T03:18:20.264Z,99569.26
2023-04-21T03:21:20.192Z,99568.84
2023-04-21T03:24:20.203Z,99572.36
2023-04-21T03:27:20.226Z,99566.94
2023-04-21T03:30:20.240Z,99570.58
2023-04-21T03:33:23.254Z,99568.90
2023-04-21T03:36:23.223Z,99568.37
2023-04-21T03:39:24.421Z,99566.01
2023-04-21T03:42:24.245Z,99567.21
2023-04-21T03:45:28.265Z,99565.30
2023-04-21T03:48:28.270Z,99561.77
2023-04-21T03:51:28.525Z,99563.68
2023-04-21T03:54:28.262Z,99563.89
2023-04-21T03:57:28.285Z,99561.21
2023-04-21T04:00:28.297Z,99558.44
2023-04-21T04:03:28.512Z,99557.99
2023-04-21T04:06:29.323Z,99558.18
2023-04-21T04:09:30.324Z,99558.55
2023-04-21T04:12:31.288Z,99555.80
2023-04-21T04:15:31.289Z,99556.56
2023-04-21T04:18:31.318Z,99557.34
2023-04-21T04:21:31.340Z,99561.16
2023-04-21T04:24:32.317Z,99562.90
2023-04-21T04:27:32.316Z,99563.27
2023-04-21T04:30:34.385Z,99566.88
2023-04-21T04:33:35.304Z,99571.02
2023-04-21T04:36:42.362Z,99571.54
2023-04-21T04:39:43.314Z,99571.35
2023-04-21T04:42:43.395Z,99572.69
2023-04-21T04:45:43.353Z,99574.06
2023-04-21T04:48:43.627Z,99575.40
2023-04-21T04:51:43.354Z,99575.45
2023-04-21T04:54:43.353Z,99566.32
2023-04-21T04:57:43.358Z,99561.96
2023-04-21T05:00:43.361Z,99565.48
2023-04-21T05:03:43.511Z,99572.21
2023-04-21T05:06:43.406Z,99567.18
2023-04-21T05:09:43.456Z,99568.55
2023-04-21T05:12:43.685Z,99575.55
2023-04-21T05:15:43.436Z,99575.38
2023-04-21T05:18:43.395Z,99576.01
2023-04-21T05:21:43.423Z,99572.45
2023-04-21T05:24:43.385Z,99572.78
2023-04-21T05:27:43.484Z,99568.97
2023-04-21T05:30:44.427Z,99571.69
2023-04-21T05:33:44.473Z,99577.14
2023-04-21T05:36:45.465Z,99578.63
2023-04-21T05:39:45.426Z,99582.05
2023-04-21T05:42:46.435Z,99578.71
2023-04-21T05:45:46.669Z,99575.83
2023-04-21T05:48:46.574Z,99568.78
2023-04-21T05:51:47.493Z,99565.79
2023-04-21T05:54:47.539Z,99558.02
2023-04-21T05:57:47.452Z,99548.43
2023-04-21T06:00:49.249Z,99547.86
2023-04-21T06:03:51.661Z,99548.04
2023-04-21T06:06:51.520Z,99543.41
2023-04-21T06:09:53.500Z,99543.88
2023-04-21T06:12:54.540Z,99542.45
2023-04-21T06:15:55.688Z,99536.86
2023-04-21T06:18:55.534Z,99537.98
2023-04-21T06:21:55.585Z,99536.83
2023-04-21T06:24:55.628Z,99537.47
2023-04-21T06:27:55.525Z,99537.06
2023-04-21T06:30:55.526Z,99536.80
2023-04-21T06:33:55.617Z,99545.77
2023-04-21T06:36:56.602Z,99548.60
2023-04-21T06:39:57.585Z,99548.04
2023-04-21T06:42:59.596Z,99547.48
2023-04-21T06:45:59.603Z,99553.90
2023-04-21T06:48:59.643Z,99547.18
2023-04-21T06:51:59.647Z,99556.38
2023-04-21T06:54:59.580Z,99553.80
2023-04-21T06:57:59.616Z,99554.25
2023-04-21T07:00:59.743Z,99550.17
2023-04-21T07:03:59.778Z,99544.10
2023-04-21T07:07:02.401Z,99541.53
2023-04-21T07:10:03.602Z,99539.91
2023-04-21T07:13:03.672Z,99536.63
2023-04-21T07:16:03.684Z,99544.04
2023-04-21T07:19:03.695Z,99542.83
2023-04-21T07:22:04.701Z,99545.95
2023-04-21T07:25:04.710Z,99554.61
2023-04-21T07:27:57.794Z,99551.46
2023-04-21T07:30:57.786Z,99556.74
2023-04-21T07:33:57.661Z,99550.83
2023-04-21T07:37:00.695Z,99559.05
2023-04-21T07:40:00.901Z,99559.30
2023-04-21T07:43:00.737Z,99561.96
2023-04-21T07:46:00.833Z,99564.55
2023-04-21T07:49:02.780Z,99551.56
2023-04-21T07:52:03.699Z,99542.52
2023-04-21T07:55:03.801Z,99535.11
2023-04-21T07:58:04.692Z,99545.13
2023-04-21T08:01:05.719Z,99540.95
2023-04-21T08:04:05.979Z,99544.38
2023-04-21T08:07:07.833Z,99552.80
2023-04-21T08:10:08.736Z,99557.50
2023-04-21T08:13:13.726Z,99561.06
2023-04-21T08:16:13.882Z,99555.88
2023-04-21T08:19:13.789Z,99556.68
2023-04-21T08:22:14.810Z,99545.67
2023-04-21T08:25:15.789Z,99556.72
2023-04-21T08:28:15.773Z,99542.67
2023-04-21T08:31:15.828Z,99560.82
2023-04-21T08:34:15.734Z,99559.65
2023-04-21T08:37:15.785Z,99564.86
2023-04-21T08:40:09.923Z,99556.73
2023-04-21T08:43:09.792Z,99545.65
2023-04-21T08:46:09.848Z,99565.40
2023-04-21T08:49:09.837Z,99567.99
2023-04-21T08:52:09.824Z,99570.26
2023-04-21T08:55:10.870Z,99570.77
2023-04-21T08:58:12.804Z,99576.14
2023-04-21T09:01:12.885Z,99569.21
2023-04-21T09:04:31.109Z,99575.63
2023-04-21T09:07:57.945Z,99570.43
2023-04-21T09:11:03.303Z,99575.45
2023-04-21T09:14:04.826Z,99571.27
2023-04-21T09:17:11.953Z,99567.80
2023-04-21T09:20:20.963Z,99578.55
2023-04-21T09:23:21.902Z,99581.33
2023-04-21T09:26:21.920Z,99578.73
2023-04-21T09:29:21.990Z,99589.91
2023-04-21T09:32:25.891Z,99587.58
2023-04-21T09:35:18.921Z,99597.16
2023-04-21T09:38:03.953Z,99597.63
2023-04-21T09:40:49.882Z,99588.77
2023-04-21T09:43:35.900Z,99603.79
2023-04-21T09:46:39.983Z,99607.98
2023-04-21T09:49:39.928Z,99603.34
2023-04-21T09:52:39.927Z,99606.34
2023-04-21T09:55:40.943Z,99586.77
2023-04-21T09:58:42.978Z,99599.16
2023-04-21T10:01:45.121Z,99588.91
2023-04-21T10:04:45.191Z,99599.83
2023-04-21T10:07:45.946Z,99614.76
2023-04-21T10:10:46.016Z,99611.97
2023-04-21T10:13:46.989Z,99625.17
2023-04-21T10:16:48.968Z,99627.63
2023-04-21T10:19:48.906Z,99616.42
2023-04-21T10:22:50.027Z,99641.71
2023-04-21T10:25:50.946Z,99638.39
2023-04-21T10:28:58.022Z,99628.03
2023-04-21T10:31:57.990Z,99624.19
2023-04-21T10:34:58.230Z,99630.72
2023-04-21T10:38:01.226Z,99637.09
2023-04-21T10:41:01.242Z,99630.64
2023-04-21T10:44:05.009Z,99617.77
2023-04-21T10:47:05.036Z,99618.96
2023-04-21T10:50:05.993Z,99620.52
2023-04-21T10:53:07.060Z,99611.47
2023-04-21T10:56:08.101Z,99597.43
2023-04-21T10:59:07.988Z,99604.55
2023-04-21T11:02:08.185Z,99596.52
2023-04-21T11:05:10.291Z,99606.30
2023-04-21T11:08:20.138Z,99626.17
2023-04-21T11:11:20.267Z,99620.18
2023-04-21T11:14:21.299Z,99602.75
2023-04-21T11:17:29.148Z,99603.31
2023-04-21T11:20:29.084Z,99608.86
2023-04-21T11:23:32.117Z,99590.69
2023-04-21T11:26:33.154Z,99589.30
2023-04-21T11:29:33.086Z,99589.82
2023-04-21T11:32:33.157Z,99588.08
2023-04-21T11:35:26.212Z,99582.86
2023-04-21T11:38:22.116Z,99585.27
2023-04-21T11:41:22.115Z,99580.35
2023-04-21T11:44:22.099Z,99574.48
2023-04-21T11:47:27.833Z,99567.55
2023-04-21T11:50:32.145Z,99570.23
2023-04-21T11:53:32.129Z,99567.71
2023-04-21T11:56:33.113Z,99566.70
2023-04-21T11:59:35.199Z,99573.01
2023-04-21T12:02:36.250Z,99568.46
2023-04-21T12:05:36.264Z,99562.40
2023-04-21T12:08:36.128Z,99560.71
2023-04-21T12:11:33.196Z,99556.41
2023-04-21T12:14:19.166Z,99555.71
2023-04-21T12:17:19.209Z,99544.77
2023-04-21T12:20:20.172Z,99541.41
2023-04-21T12:23:20.172Z,99537.20
2023-04-21T12:26:20.195Z,99537.74
2023-04-21T12:29:13.162Z,99535.21
2023-04-21T12:31:59.481Z,99539.93
2023-04-21T12:34:53.291Z,99529.73
2023-04-21T12:37:54.219Z,99531.29
2023-04-21T12:40:54.262Z,99532.12
2023-04-21T12:43:54.246Z,99530.21
2023-04-21T12:46:55.310Z,99527.91
2023-04-21T12:49:55.250Z,99520.84
2023-04-21T12:52:57.312Z,99519.11
2023-04-21T12:56:04.801Z,99525.31
2023-04-21T12:58:58.265Z,99525.40
2023-04-21T13:01:38.454Z,99525.71
2023-04-21T13:04:24.584Z,99526.38
2023-04-21T13:07:04.420Z,99523.23
2023-04-21T13:09:50.487Z,99523.95
2023-04-21T13:12:30.453Z,99526.73
2023-04-21T13:15:17.307Z,99522.91
2023-04-21T13:17:57.453Z,99517.03
2023-04-21T13:20:44.457Z,99513.47
2023-04-21T13:23:44.344Z,99512.17
2023-04-21T13:26:37.338Z,99513.58
2023-04-21T13:29:16.528Z,99509.40
2023-04-21T13:32:02.405Z,99508.69
2023-04-21T13:34:41.495Z,99509.12
2023-04-21T13:37:27.450Z,99506.58
2023-04-21T13:40:27.336Z,99504.88
2023-04-21T13:43:27.435Z,99504.58
2023-04-21T13:46:27.316Z,99502.48
2023-04-21T13:49:27.305Z,99503.16
2023-04-21T13:52:27.336Z,99500.21
2023-04-21T13:55:27.365Z,99502.61
2023-04-21T13:58:27.439Z,99507.61
2023-04-21T14:01:27.408Z,99501.02
2023-04-21T14:04:27.519Z,99500.30
2023-04-21T14:07:28.389Z,99497.54
2023-04-21T14:10:28.503Z,99504.98
2023-04-21T14:16:33.444Z,99501.85
2023-04-21T14:19:26.412Z,99504.64
2023-04-21T14:22:12.493Z,99504.63
2023-04-21T14:25:12.412Z,99502.20
2023-04-21T14:28:15.422Z,99498.40
2023-04-21T14:31:15.542Z,99500.31
2023-04-21T14:34:15.432Z,99505.52
2023-04-21T14:37:08.446Z,99500.19
2023-04-21T14:39:54.433Z,99494.31
2023-04-21T14:42:55.602Z,99492.61
2023-04-21T14:45:55.538Z,99487.77
2023-04-21T14:48:55.534Z,99490.21
2023-04-21T14:51:57.492Z,99492.48
2023-04-21T14:54:58.562Z,99495.44
2023-04-21T14:57:58.479Z,99492.67
2023-04-21T15:00:58.523Z,99493.02
2023-04-21T15:03:58.521Z,99495.27
2023-04-21T15:06:58.543Z,99496.50
2023-04-21T15:09:58.512Z,99495.27
2023-04-21T15:12:59.536Z,99489.73
2023-04-21T15:16:00.515Z,99485.56
2023-04-21T15:19:01.914Z,99485.21
2023-04-21T15:22:03.522Z,99486.77
2023-04-21T15:25:03.510Z,99495.40
2023-04-21T15:28:03.549Z,99502.29
2023-04-21T15:31:03.601Z,99510.39
2023-04-21T15:34:03.564Z,99518.66
2023-04-21T15:37:03.511Z,99532.45
2023-04-21T15:40:03.544Z,99530.70
2023-04-21T15:43:03.618Z,99508.89
2023-04-21T15:46:04.606Z,99525.71
2023-04-21T15:49:04.633Z,99538.66
2023-04-21T15:52:04.659Z,99518.99
2023-04-21T15:55:05.669Z,99497.00
2023-04-21T15:58:05.580Z,99492.08
2023-04-21T16:01:05.706Z,99482.65
2023-04-21T16:04:05.799Z,99474.27
2023-04-21T16:07:05.792Z,99478.39
2023-04-21T16:10:05.648Z,99470.83
2023-04-21T16:13:05.567Z,99475.52
2023-04-21T16:16:05.678Z,99472.26
2023-04-21T16:19:05.597Z,99462.95
2023-04-21T16:22:07.374Z,99455.84
2023-04-21T16:25:07.827Z,99455.55
2023-04-21T16:28:07.710Z,99460.34
2023-04-21T16:31:07.656Z,99454.98
2023-04-21T16:34:07.722Z,99455.66
2023-04-21T16:37:07.706Z,99465.65
2023-04-21T16:40:07.715Z,99475.07
2023-04-21T16:43:07.791Z,99482.24
2023-04-21T16:46:07.743Z,99489.58
2023-04-21T16:49:09.785Z,99498.41
2023-04-21T16:52:13.736Z,99496.01
2023-04-21T16:55:13.658Z,99501.45
2023-04-21T16:58:13.704Z,99502.95
2023-04-21T17:01:13.733Z,99507.01
2023-04-21T17:04:13.898Z,99512.59
2023-04-21T17:07:13.767Z,99516.73
2023-04-21T17:10:13.700Z,99522.98
2023-04-21T17:13:13.702Z,99524.86
2023-04-21T17:16:16.980Z,99532.31
2023-04-21T17:19:16.676Z,99534.27
2023-04-21T17:22:16.688Z,99534.20
2023-04-21T17:25:19.850Z,99539.84
2023-04-21T17:28:22.083Z,99544.27
2023-04-21T17:31:21.766Z,99545.73
2023-04-21T17:34:21.851Z,99542.41
2023-04-21T17:37:23.955Z,99544.58
2023-04-21T17:40:23.747Z,99549.98
2023-04-21T17:43:23.862Z,99547.70
2023-04-21T17:46:25.591Z,99548.20
2023-04-21T17:49:28.747Z,99542.31
2023-04-21T17:52:30.004Z,99548.29
2023-04-21T17:55:29.776Z,99544.59
2023-04-21T17:58:30.786Z,99549.86
2023-04-21T18:01:30.824Z,99543.10
2023-04-21T18:04:31.153Z,99536.66
2023-04-21T18:07:30.956Z,99538.83
2023-04-21T18:10:30.830Z,99533.42
2023-04-21T18:13:30.801Z,99536.96
2023-04-21T18:16:32.024Z,99541.39
2023-04-21T18:19:31.876Z,99535.53
2023-04-21T18:22:31.841Z,99537.08
2023-04-21T18:25:42.214Z,99530.36
2023-04-21T18:28:42.823Z,99527.39
2023-04-21T18:31:42.877Z,99529.42
2023-04-21T18:34:42.869Z,99528.70
2023-04-21T18:37:42.861Z,99530.59
2023-04-21T18:40:42.861Z,99530.61
2023-04-21T18:43:42.847Z,99530.09
2023-04-21T18:46:42.859Z,99525.30
2023-04-21T18:49:42.857Z,99527.08
2023-04-21T18:52:42.839Z,99525.06
2023-04-21T18:55:45.923Z,99526.66
2023-04-21T18:58:45.909Z,99528.05
2023-04-21T19:01:48.084Z,99526.88
2023-04-21T19:04:49.847Z,99522.77
2023-04-21T19:07:50.916Z,99512.44
2023-04-21T19:10:59.939Z,99510.55
2023-04-21T19:13:59.901Z,99500.04
2023-04-21T19:17:00.120Z,99496.93
2023-04-21T19:19:59.938Z,99490.92
2023-04-21T19:22:59.963Z,99482.65
2023-04-21T19:26:01.956Z,99477.67
2023-04-21T19:29:01.951Z,99472.36
2023-04-21T19:32:01.977Z,99468.58
2023-04-21T19:35:03.022Z,99464.46
2023-04-21T19:38:03.958Z,99460.50
2023-04-21T19:41:04.074Z,99464.61
2023-04-21T19:44:03.957Z,99463.06
2023-04-21T19:47:03.986Z,99463.05
2023-04-21T19:50:04.013Z,99461.52
2023-04-21T19:53:04.195Z,99463.08
2023-04-21T19:56:04.040Z,99458.61
2023-04-21T19:59:04.061Z,99459.63
2023-04-21T20:02:05.144Z,99456.34
2023-04-21T20:05:05.200Z,99460.62
2023-04-21T20:08:06.014Z,99461.31
2023-04-21T20:11:11.017Z,99461.80
2023-04-21T20:14:04.215Z,99467.65
2023-04-21T20:17:04.026Z,99465.58
2023-04-21T20:20:05.004Z,99469.17
2023-04-21T20:23:05.051Z,99466.91
2023-04-21T20:26:05.074Z,99470.15
2023-04-21T20:29:05.110Z,99466.02
2023-04-21T20:32:05.082Z,99467.39
2023-04-21T20:35:05.572Z,99464.64
2023-04-21T20:38:08.032Z,99463.94
2023-04-21T20:41:08.081Z,99464.64
2023-04-21T20:44:10.046Z,99461.02
2023-04-21T20:47:20.372Z,99461.00
2023-04-21T20:50:23.143Z,99455.84
2023-04-21T20:53:23.083Z,99459.08
2023-04-21T20:56:16.133Z,99455.61
2023-04-21T20:58:58.434Z,99452.33
2023-04-21T21:01:46.194Z,99447.64
2023-04-21T21:04:46.100Z,99442.23
2023-04-21T21:07:46.323Z,99443.89
2023-04-21T21:10:46.068Z,99440.56
2023-04-21T21:13:47.132Z,99438.59
2023-04-21T21:16:47.080Z,99438.35
2023-04-21T21:19:47.163Z,99440.34
2023-04-21T21:23:12.061Z,99445.78
2023-04-21T21:26:04.240Z,99441.27
2023-04-21T21:28:50.180Z,99446.58
2023-04-21T21:31:50.248Z,99446.06
2023-04-21T21:34:58.307Z,99449.46
2023-04-21T21:38:32.234Z,99451.15
2023-04-21T21:41:37.078Z,99450.59
2023-04-21T21:44:30.825Z,99449.33
2023-04-21T21:47:25.295Z,99450.43
2023-04-21T21:50:25.156Z,99452.92
2023-04-21T21:53:25.711Z,99453.68
2023-04-21T21:56:26.198Z,99443.96
2023-04-21T21:59:26.195Z,99446.41
2023-04-21T22:02:26.296Z,99445.65
2023-04-21T22:05:26.312Z,99446.09
2023-04-21T22:08:27.426Z,99444.11
2023-04-21T22:11:27.225Z,99443.11
2023-04-21T22:14:27.209Z,99438.16
2023-04-21T22:17:27.329Z,99439.78
2023-04-21T22:20:28.226Z,99444.02
2023-04-21T22:23:28.296Z,99443.95
2023-04-21T22:26:28.211Z,99444.20
2023-04-21T22:29:28.497Z,99445.48
2023-04-21T22:32:28.242Z,99446.42
2023-04-21T22:35:28.252Z,99445.65
2023-04-21T22:38:28.225Z,99445.10
2023-04-21T22:41:28.245Z,99445.20
2023-04-21T22:44:28.303Z,99445.10
2023-04-21T22:47:28.290Z,99444.36
2023-04-21T22:50:28.348Z,99441.91
2023-04-21T22:53:28.278Z,99443.27
2023-04-21T22:56:28.393Z,99438.70
2023-04-21T22:59:28.302Z,99439.67
2023-04-21T23:02:28.392Z,99438.54
2023-04-21T23:05:28.586Z,99437.35
2023-04-21T23:08:21.305Z,99435.80
2023-04-21T23:11:07.316Z,99430.14
2023-04-21T23:14:07.308Z,99430.69
2023-04-21T23:17:07.315Z,99433.96
2023-04-21T23:20:08.324Z,99429.70
2023-04-21T23:23:08.360Z,99430.58
2023-04-21T23:26:08.308Z,99432.18
2023-04-21T23:29:08.383Z,99432.92
2023-04-21T23:32:08.454Z,99431.58
2023-04-21T23:35:08.373Z,99432.64
2023-04-21T23:38:11.339Z,99426.35
2023-04-21T23:41:11.422Z,99423.70
2023-04-21T23:44:11.347Z,99424.67
2023-04-21T23:47:11.377Z,99423.73
2023-04-21T23:50:11.371Z,99426.38
2023-04-21T23:53:11.355Z,99428.48
2023-04-21T23:56:11.472Z,99430.19
2023-04-21T23:59:12.390Z,99430.56
